createdAt,value
2022-11-02T00:02:10.960Z,9.24
2022-11-02T00:04:37.272Z,9.47
2022-11-02T00:07:03.529Z,9.15
2022-11-02T00:09:29.787Z,8.75
2022-11-02T00:11:56.035Z,9.06
2022-11-02T00:14:22.553Z,8.91
2022-11-02T00:16:48.807Z,9.30
2022-11-02T00:19:15.277Z,9.38
2022-11-02T00:21:41.528Z,9.34
2022-11-02T00:24:07.782Z,9.47
2022-11-02T00:26:34.038Z,9.39
2022-11-02T00:29:00.312Z,8.93
2022-11-02T00:31:26.567Z,8.83
2022-11-02T00:33:52.820Z,8.92
2022-11-02T00:36:19.063Z,9.19
2022-11-02T00:38:45.486Z,8.72
2022-11-02T00:41:12.773Z,9.04
2022-11-02T00:43:39.020Z,9.14
2022-11-02T00:46:05.275Z,8.77
2022-11-02T00:48:31.519Z,9.07
2022-11-02T00:50:57.776Z,9.06
2022-11-02T00:53:24.037Z,8.89
2022-11-02T00:55:50.411Z,8.82
2022-11-02T00:58:16.699Z,8.89
2022-11-02T01:00:42.957Z,8.57
2022-11-02T01:03:09.356Z,8.81
2022-11-02T01:05:35.603Z,8.89
2022-11-02T01:08:02.184Z,8.85
2022-11-02T01:10:28.649Z,8.66
2022-11-02T01:12:54.939Z,8.70
2022-11-02T01:15:21.182Z,8.35
2022-11-02T01:17:47.461Z,8.39
2022-11-02T01:20:14.244Z,8.67
2022-11-02T01:22:40.544Z,8.62
2022-11-02T01:25:07.822Z,8.56
2022-11-02T01:27:34.088Z,8.33
2022-11-02T01:30:00.349Z,8.66
2022-11-02T01:32:26.799Z,8.65
2022-11-02T01:34:53.073Z,8.70
2022-11-02T01:37:19.511Z,8.49
2022-11-02T01:39:45.773Z,8.30
2022-11-02T01:42:12.068Z,8.66
2022-11-02T01:44:39.889Z,8.56
2022-11-02T01:47:06.447Z,8.57
2022-11-02T01:49:32.735Z,8.65
2022-11-02T01:51:59.008Z,8.53
2022-11-02T01:54:25.290Z,8.62
2022-11-02T01:56:51.622Z,8.71
2022-11-02T01:59:17.887Z,8.74
2022-11-02T02:01:44.675Z,8.75
2022-11-02T02:04:10.978Z,8.67
2022-11-02T02:06:37.258Z,8.56
2022-11-02T02:09:03.725Z,8.62
2022-11-02T02:11:30.037Z,8.67
2022-11-02T02:13:56.282Z,8.55
2022-11-02T02:16:22.538Z,8.48
2022-11-02T02:18:48.734Z,8.57
2022-11-02T02:21:14.986Z,8.44
2022-11-02T02:23:41.232Z,8.34
2022-11-02T02:26:07.487Z,8.31
2022-11-02T02:28:33.664Z,8.43
2022-11-02T02:30:59.908Z,8.48
2022-11-02T02:33:26.088Z,8.33
2022-11-02T02:35:52.338Z,8.45
2022-11-02T02:38:18.589Z,8.16
2022-11-02T02:40:44.829Z,8.38
2022-11-02T02:43:11.016Z,8.34
2022-11-02T02:45:37.212Z,8.33
2022-11-02T02:48:03.907Z,8.30
2022-11-02T02:50:30.398Z,8.35
2022-11-02T02:52:56.581Z,7.91
2022-11-02T02:55:22.861Z,8.23
2022-11-02T02:57:49.118Z,7.91
2022-11-02T03:00:16.500Z,8.09
2022-11-02T03:02:42.769Z,8.04
2022-11-02T03:05:09.058Z,8.01
2022-11-02T03:07:35.312Z,8.27
2022-11-02T03:10:01.491Z,8.27
2022-11-02T03:12:27.735Z,8.02
2022-11-02T03:14:53.926Z,7.94
2022-11-02T03:17:20.120Z,8.03
2022-11-02T03:19:46.350Z,8.04
2022-11-02T03:22:12.685Z,8.03
2022-11-02T03:24:39.114Z,8.07
2022-11-02T03:27:05.409Z,8.14
2022-11-02T03:29:31.672Z,8.16
2022-11-02T03:31:57.977Z,8.23
2022-11-02T03:34:24.175Z,8.14
2022-11-02T03:36:50.443Z,8.21
2022-11-02T03:39:16.625Z,8.19
2022-11-02T03:41:42.812Z,8.18
2022-11-02T03:44:09.078Z,8.08
2022-11-02T03:46:35.262Z,8.09
2022-11-02T03:49:04.614Z,8.21
2022-11-02T03:51:34.933Z,8.13
2022-11-02T03:54:01.220Z,7.70
2022-11-02T03:56:27.477Z,7.76
2022-11-02T03:58:53.800Z,7.97
2022-11-02T04:01:20.122Z,7.98
2022-11-02T04:03:46.558Z,7.67
2022-11-02T04:06:12.912Z,7.69
2022-11-02T04:08:39.096Z,7.97
2022-11-02T04:11:23.985Z,7.88
2022-11-02T04:14:08.783Z,8.03
2022-11-02T04:16:35.061Z,8.01
2022-11-02T04:19:19.756Z,8.08
2022-11-02T04:22:05.895Z,8.04
2022-11-02T04:24:51.203Z,8.01
2022-11-02T04:27:20.886Z,8.04
2022-11-02T04:29:47.620Z,8.09
2022-11-02T04:32:13.812Z,7.99
2022-11-02T04:34:40.149Z,7.90
2022-11-02T04:37:26.325Z,7.77
2022-11-02T04:39:52.634Z,7.89
2022-11-02T04:42:18.822Z,7.80
2022-11-02T04:44:45.045Z,7.64
2022-11-02T04:47:11.234Z,7.57
2022-11-02T04:49:37.426Z,7.78
2022-11-02T04:52:03.609Z,7.74
2022-11-02T04:54:29.808Z,7.72
2022-11-02T04:56:56.021Z,7.79
2022-11-02T04:59:22.237Z,7.69
2022-11-02T05:01:48.557Z,7.68
2022-11-02T05:04:14.828Z,7.71
2022-11-02T05:06:41.032Z,7.83
2022-11-02T05:09:07.286Z,7.81
2022-11-02T05:11:34.264Z,7.81
2022-11-02T05:14:00.441Z,7.70
2022-11-02T05:16:26.666Z,7.70
2022-11-02T05:18:52.848Z,7.67
2022-11-02T05:21:19.043Z,7.71
2022-11-02T05:23:45.305Z,7.51
2022-11-02T05:26:11.535Z,7.47
2022-11-02T05:28:37.725Z,7.44
2022-11-02T05:31:04.094Z,7.47
2022-11-02T05:33:30.789Z,7.54
2022-11-02T05:35:57.235Z,7.56
2022-11-02T05:38:23.421Z,7.52
2022-11-02T05:40:49.619Z,7.45
2022-11-02T05:43:16.585Z,7.47
2022-11-02T05:45:42.800Z,7.51
2022-11-02T05:48:09.896Z,7.49
2022-11-02T05:50:36.098Z,7.49
2022-11-02T05:53:02.971Z,7.38
2022-11-02T05:55:29.283Z,7.56
2022-11-02T05:57:55.602Z,7.51
2022-11-02T06:00:21.853Z,7.48
2022-11-02T06:02:48.034Z,7.48
2022-11-02T06:05:14.313Z,7.48
2022-11-02T06:07:40.553Z,7.46
2022-11-02T06:10:06.796Z,7.50
2022-11-02T06:12:32.984Z,7.40
2022-11-02T06:14:59.160Z,7.42
2022-11-02T06:17:25.346Z,7.43
2022-11-02T06:19:51.948Z,7.45
2022-11-02T06:22:18.157Z,7.48
2022-11-02T06:24:44.352Z,7.49
2022-11-02T06:27:10.564Z,7.48
2022-11-02T06:29:36.736Z,7.52
2022-11-02T06:32:03.066Z,7.47
2022-11-02T06:34:29.258Z,7.69
2022-11-02T06:36:55.441Z,7.83
2022-11-02T06:39:21.646Z,7.92
2022-11-02T06:41:47.923Z,7.92
2022-11-02T06:44:14.128Z,8.10
2022-11-02T06:46:40.632Z,8.16
2022-11-02T06:49:06.810Z,8.28
2022-11-02T06:51:33.089Z,8.35
2022-11-02T06:54:02.159Z,8.41
2022-11-02T06:56:31.123Z,8.57
2022-11-02T06:58:57.401Z,8.72
2022-11-02T07:01:25.847Z,8.77
2022-11-02T07:03:52.172Z,8.63
2022-11-02T07:06:18.678Z,8.66
2022-11-02T07:08:44.861Z,8.69
2022-11-02T07:11:11.050Z,8.76
2022-11-02T07:13:37.301Z,8.75
2022-11-02T07:16:03.614Z,8.63
2022-11-02T07:18:29.797Z,8.64
2022-11-02T07:20:56.068Z,8.64
2022-11-02T07:23:23.875Z,8.75
2022-11-02T07:25:50.286Z,8.79
2022-11-02T07:28:16.475Z,8.87
2022-11-02T07:30:42.768Z,9.17
2022-11-02T07:33:09.058Z,9.42
2022-11-02T07:35:35.474Z,9.54
2022-11-02T07:38:01.725Z,9.75
2022-11-02T07:40:28.442Z,9.66
2022-11-02T07:42:54.873Z,9.87
2022-11-02T07:45:21.266Z,10.01
2022-11-02T07:50:37.308Z,10.24
2022-11-02T07:53:03.991Z,10.25
2022-11-02T07:55:30.372Z,10.45
2022-11-02T07:57:56.665Z,10.57
2022-11-02T08:00:24.585Z,10.80
2022-11-02T08:02:51.339Z,10.72
2022-11-02T08:05:17.617Z,11.08
2022-11-02T08:07:43.876Z,10.96
2022-11-02T08:10:10.158Z,11.29
2022-11-02T08:12:36.413Z,11.26
2022-11-02T08:15:10.192Z,11.32
2022-11-02T08:17:36.464Z,11.61
2022-11-02T08:20:02.716Z,11.78
2022-11-02T08:22:28.969Z,11.96
2022-11-02T08:24:58.545Z,11.66
2022-11-02T08:27:24.789Z,12.17
2022-11-02T08:29:52.570Z,12.40
2022-11-02T08:32:18.826Z,12.36
2022-11-02T08:34:45.116Z,12.44
2022-11-02T08:37:11.440Z,12.74
2022-11-02T08:39:37.688Z,12.78
2022-11-02T08:42:03.959Z,13.16
2022-11-02T08:44:30.237Z,13.47
2022-11-02T08:46:56.505Z,13.45
2022-11-02T08:49:22.942Z,13.15
2022-11-02T08:51:49.242Z,13.45
2022-11-02T08:54:15.674Z,13.33
2022-11-02T08:56:41.927Z,13.68
2022-11-02T08:59:11.542Z,13.58
2022-11-02T09:01:39.052Z,13.84
2022-11-02T09:04:05.467Z,13.89
2022-11-02T09:06:31.709Z,14.00
2022-11-02T09:08:59.054Z,14.10
2022-11-02T09:11:25.943Z,14.43
2022-11-02T09:13:56.701Z,14.19
2022-11-02T09:16:23.466Z,14.64
2022-11-02T09:18:49.725Z,14.73
2022-11-02T09:21:15.983Z,14.77
2022-11-02T09:23:42.268Z,14.80
2022-11-02T09:26:10.788Z,14.89
2022-11-02T09:28:37.040Z,14.94
2022-11-02T09:31:06.029Z,14.83
2022-11-02T09:33:36.128Z,15.01
2022-11-02T09:36:02.532Z,15.19
2022-11-02T09:38:28.789Z,15.21
2022-11-02T09:40:58.530Z,15.04
2022-11-02T09:43:29.458Z,15.10
2022-11-02T09:45:58.381Z,15.03
2022-11-02T09:48:28.440Z,15.04
2022-11-02T09:50:57.735Z,15.12
2022-11-02T09:53:27.262Z,15.03
2022-11-02T09:55:53.536Z,15.33
2022-11-02T09:58:19.776Z,15.24
2022-11-02T10:00:46.246Z,15.06
2022-11-02T10:03:12.531Z,15.16
2022-11-02T10:05:38.797Z,15.12
2022-11-02T10:08:05.287Z,15.12
2022-11-02T10:10:31.813Z,14.97
2022-11-02T10:12:58.066Z,14.91
2022-11-02T10:15:24.341Z,14.91
2022-11-02T10:17:50.824Z,14.87
2022-11-02T10:20:17.139Z,14.82
2022-11-02T10:22:43.453Z,14.54
2022-11-02T10:25:09.729Z,14.68
2022-11-02T10:27:36.050Z,14.81
2022-11-02T10:30:05.649Z,14.82
2022-11-02T10:32:32.326Z,15.05
2022-11-02T10:35:17.508Z,15.38
2022-11-02T10:37:45.202Z,16.04
2022-11-02T10:40:14.796Z,16.49
2022-11-02T10:42:42.947Z,16.89
2022-11-02T10:45:09.226Z,16.20
2022-11-02T10:47:35.550Z,16.43
2022-11-02T10:50:01.872Z,16.69
2022-11-02T10:52:28.151Z,16.66
2022-11-02T10:54:55.609Z,16.45
2022-11-02T10:57:21.880Z,16.38
2022-11-02T10:59:48.132Z,15.98
2022-11-02T11:02:14.523Z,16.19
2022-11-02T11:04:40.796Z,15.99
2022-11-02T11:07:07.332Z,16.52
2022-11-02T11:09:33.590Z,16.09
2022-11-02T11:11:59.888Z,16.15
2022-11-02T11:20:00.374Z,16.35
2022-11-02T11:22:29.014Z,16.40
2022-11-02T11:24:55.321Z,16.06
2022-11-02T11:27:21.579Z,16.25
2022-11-02T11:29:49.612Z,16.20
2022-11-02T11:32:15.814Z,16.25
2022-11-02T11:34:42.139Z,16.29
2022-11-02T11:37:08.399Z,16.34
2022-11-02T11:39:34.731Z,16.75
2022-11-02T11:42:00.994Z,16.15
2022-11-02T11:44:27.259Z,16.56
2022-11-02T11:46:53.538Z,16.51
2022-11-02T11:49:20.121Z,16.22
2022-11-02T11:51:46.373Z,16.24
2022-11-02T11:54:12.638Z,16.37
2022-11-02T11:56:38.890Z,16.44
2022-11-02T11:59:05.133Z,16.40
2022-11-02T12:01:31.445Z,16.15
2022-11-02T12:03:57.780Z,16.44
2022-11-02T12:06:24.046Z,16.43
2022-11-02T12:08:50.446Z,16.28
2022-11-02T12:11:19.275Z,16.74
2022-11-02T12:13:45.722Z,16.57
2022-11-02T12:16:12.035Z,16.69
2022-11-02T12:18:38.346Z,16.70
2022-11-02T12:21:04.665Z,16.41
2022-11-02T12:23:30.920Z,16.08
2022-11-02T12:26:00.397Z,15.94
2022-11-02T12:28:29.998Z,15.98
2022-11-02T12:30:56.294Z,15.97
2022-11-02T12:33:22.606Z,16.26
2022-11-02T12:35:48.863Z,15.78
2022-11-02T12:38:15.113Z,16.05
2022-11-02T12:40:41.380Z,15.89
2022-11-02T12:43:07.895Z,15.93
2022-11-02T12:45:37.342Z,16.00
2022-11-02T12:48:04.664Z,15.91
2022-11-02T12:50:31.162Z,16.25
2022-11-02T12:52:57.431Z,16.46
2022-11-02T12:55:23.687Z,16.13
2022-11-02T12:57:49.945Z,16.04
2022-11-02T13:00:16.920Z,15.76
2022-11-02T13:02:43.180Z,15.78
2022-11-02T13:05:09.443Z,15.94
2022-11-02T13:07:35.705Z,15.70
2022-11-02T13:10:02.010Z,15.36
2022-11-02T13:12:28.257Z,15.43
2022-11-02T13:14:54.565Z,15.63
2022-11-02T13:17:20.818Z,15.60
2022-11-02T13:19:47.110Z,15.63
2022-11-02T13:22:13.368Z,15.60
2022-11-02T13:24:39.612Z,15.53
2022-11-02T13:27:35.260Z,15.73
2022-11-02T13:29:52.244Z,15.77
2022-11-02T13:32:18.498Z,15.84
2022-11-02T13:34:44.809Z,15.84
2022-11-02T13:37:11.153Z,15.74
2022-11-02T13:39:37.713Z,15.48
2022-11-02T13:42:04.029Z,15.49
2022-11-02T13:44:30.290Z,15.42
2022-11-02T13:46:58.677Z,15.32
2022-11-02T13:49:25.727Z,15.23
2022-11-02T13:51:51.993Z,15.34
2022-11-02T13:54:18.251Z,15.08
2022-11-02T13:56:44.526Z,15.02
2022-11-02T13:59:10.782Z,15.09
2022-11-02T14:01:37.182Z,14.93
2022-11-02T14:04:03.858Z,14.93
2022-11-02T14:06:30.129Z,14.87
2022-11-02T14:08:58.449Z,14.93
2022-11-02T14:11:24.708Z,15.04
2022-11-02T14:13:50.966Z,14.88
2022-11-02T14:16:17.279Z,15.14
2022-11-02T14:18:43.534Z,15.39
2022-11-02T14:21:10.070Z,15.47
2022-11-02T14:23:36.333Z,15.13
2022-11-02T14:26:02.653Z,15.02
2022-11-02T14:28:30.059Z,15.03
2022-11-02T14:30:56.314Z,15.25
2022-11-02T14:33:22.565Z,15.10
2022-11-02T14:35:48.823Z,14.92
2022-11-02T14:38:15.190Z,14.85
2022-11-02T14:40:44.603Z,14.79
2022-11-02T14:43:13.654Z,14.97
2022-11-02T14:45:40.088Z,15.11
2022-11-02T14:48:06.690Z,14.75
2022-11-02T14:50:36.579Z,14.76
2022-11-02T14:53:03.293Z,14.92
2022-11-02T14:55:30.092Z,14.76
2022-11-02T14:57:56.406Z,14.72
2022-11-02T15:00:22.684Z,14.69
2022-11-02T15:02:48.993Z,14.56
2022-11-02T15:05:15.240Z,14.45
2022-11-02T15:07:42.751Z,14.39
2022-11-02T15:10:09.058Z,14.50
2022-11-02T15:12:35.550Z,14.43
2022-11-02T15:15:01.828Z,14.54
2022-11-02T15:17:28.084Z,14.30
2022-11-02T15:19:54.348Z,14.37
2022-11-02T15:22:20.610Z,14.46
2022-11-02T15:24:46.867Z,14.34
2022-11-02T15:27:13.126Z,14.31
2022-11-02T15:29:39.440Z,14.23
2022-11-02T15:32:05.754Z,14.36
2022-11-02T15:34:31.998Z,14.28
2022-11-02T15:37:01.424Z,14.29
2022-11-02T15:39:27.726Z,14.12
2022-11-02T15:41:54.002Z,13.90
2022-11-02T15:44:20.272Z,13.82
2022-11-02T15:46:47.633Z,13.84
2022-11-02T15:49:13.889Z,13.96
2022-11-02T15:51:40.314Z,13.75
2022-11-02T15:54:06.572Z,13.89
2022-11-02T15:56:32.983Z,13.88
2022-11-02T15:58:59.221Z,13.88
2022-11-02T16:01:25.643Z,13.86
2022-11-02T16:03:57.139Z,13.81
2022-11-02T16:06:26.526Z,13.79
2022-11-02T16:08:52.786Z,13.76
2022-11-02T16:11:19.085Z,13.75
2022-11-02T16:13:55.951Z,13.73
2022-11-02T16:16:35.511Z,13.67
2022-11-02T16:19:02.204Z,13.78
2022-11-02T16:21:28.461Z,13.85
2022-11-02T16:23:54.709Z,13.80
2022-11-02T16:26:22.216Z,13.70
2022-11-02T16:28:48.482Z,13.65
2022-11-02T16:31:19.633Z,13.55
2022-11-02T16:33:46.183Z,13.39
2022-11-02T16:36:12.551Z,13.29
2022-11-02T16:38:38.922Z,13.33
2022-11-02T16:41:05.224Z,13.28
2022-11-02T16:43:31.853Z,13.24
2022-11-02T16:45:58.256Z,13.18
2022-11-02T16:48:24.551Z,12.93
2022-11-02T16:50:50.813Z,12.99
2022-11-02T16:53:17.066Z,12.96
2022-11-02T16:55:43.344Z,12.80
2022-11-02T16:58:13.389Z,12.60
2022-11-02T17:00:39.696Z,12.22
2022-11-02T17:03:06.017Z,12.35
2022-11-02T17:05:32.268Z,12.46
2022-11-02T17:07:58.635Z,12.07
2022-11-02T17:10:24.925Z,12.31
2022-11-02T17:12:51.179Z,12.31
2022-11-02T17:15:17.438Z,12.22
2022-11-02T17:17:43.693Z,12.04
2022-11-02T17:20:10.163Z,12.10
2022-11-02T17:22:36.440Z,12.07
2022-11-02T17:27:39.120Z,11.70
2022-11-02T17:30:08.594Z,10.95
2022-11-02T17:32:34.854Z,11.68
2022-11-02T17:35:02.599Z,11.69
2022-11-02T17:37:28.893Z,11.75
2022-11-02T17:39:55.134Z,11.50
2022-11-02T17:42:40.194Z,11.52
2022-11-02T17:45:06.479Z,11.43
2022-11-02T17:47:32.914Z,11.64
2022-11-02T17:49:59.171Z,11.47
2022-11-02T17:52:25.421Z,11.42
2022-11-02T17:54:51.679Z,11.35
2022-11-02T17:57:19.024Z,11.40
2022-11-02T17:59:45.323Z,11.13
2022-11-02T18:02:11.654Z,10.95
2022-11-02T18:04:38.276Z,11.18
2022-11-02T18:07:04.550Z,10.85
2022-11-02T18:09:30.810Z,11.05
2022-11-02T18:11:57.061Z,10.95
2022-11-02T18:14:23.334Z,11.12
2022-11-02T18:16:50.559Z,10.57
2022-11-02T18:19:16.821Z,10.43
2022-11-02T18:21:43.113Z,10.59
2022-11-02T18:24:09.360Z,10.85
2022-11-02T18:26:35.743Z,10.80
2022-11-02T18:29:03.907Z,10.41
2022-11-02T18:31:30.167Z,10.77
2022-11-02T18:33:56.613Z,10.76
2022-11-02T18:36:22.875Z,10.08
2022-11-02T18:38:49.117Z,9.96
2022-11-02T18:41:27.786Z,10.30
2022-11-02T18:43:56.816Z,10.55
2022-11-02T18:46:28.090Z,10.45
2022-11-02T18:48:56.907Z,10.52
2022-11-02T18:51:23.208Z,10.54
2022-11-02T18:53:49.466Z,9.72
2022-11-02T18:56:16.827Z,10.31
2022-11-02T18:58:43.107Z,9.71
2022-11-02T19:04:00.473Z,9.86
2022-11-02T19:06:45.494Z,10.25
2022-11-02T19:09:21.188Z,10.00
2022-11-02T19:11:47.717Z,10.00
2022-11-02T19:14:13.997Z,9.93
2022-11-02T19:16:40.354Z,9.55
2022-11-02T19:19:06.646Z,9.60
2022-11-02T19:21:32.913Z,9.71
2022-11-02T19:23:59.177Z,9.33
2022-11-02T19:28:58.900Z,10.00
2022-11-02T19:31:28.953Z,9.74
2022-11-02T19:33:55.347Z,9.34
2022-11-02T19:36:21.685Z,9.52
2022-11-02T19:38:47.978Z,9.60
2022-11-02T19:41:14.239Z,9.51
2022-11-02T19:43:40.486Z,9.51
2022-11-02T19:46:06.913Z,9.37
2022-11-02T19:48:33.248Z,9.58
2022-11-02T19:50:59.494Z,9.52
2022-11-02T19:53:25.743Z,9.55
2022-11-02T19:55:52.246Z,9.23
2022-11-02T19:58:18.488Z,9.18
2022-11-02T20:00:44.777Z,9.29
2022-11-02T20:03:11.325Z,9.03
2022-11-02T20:05:37.743Z,9.24
2022-11-02T20:08:04.698Z,9.10
2022-11-02T20:10:31.138Z,9.21
2022-11-02T20:12:59.366Z,9.17
2022-11-02T20:15:25.627Z,9.21
2022-11-02T20:18:17.830Z,8.43
2022-11-02T20:20:38.308Z,9.02
2022-11-02T20:23:05.390Z,9.04
2022-11-02T20:25:31.585Z,9.08
2022-11-02T20:27:59.424Z,8.95
2022-11-02T20:30:25.681Z,8.46
2022-11-02T20:32:52.059Z,8.97
2022-11-02T20:35:22.736Z,8.62
2022-11-02T20:37:49.019Z,8.51
2022-11-02T20:40:15.891Z,8.70
2022-11-02T20:42:42.142Z,8.65
2022-11-02T20:45:08.489Z,8.68
2022-11-02T20:47:34.746Z,8.60
2022-11-02T20:50:01.121Z,8.60
2022-11-02T20:52:27.320Z,8.42
2022-11-02T20:54:53.573Z,8.36
2022-11-02T20:57:21.936Z,8.65
2022-11-02T20:59:48.191Z,8.27
2022-11-02T21:02:18.374Z,8.49
2022-11-02T21:04:45.325Z,7.69
2022-11-02T21:07:11.622Z,8.06
2022-11-02T21:09:37.915Z,8.08
2022-11-02T21:12:24.308Z,8.09
2022-11-02T21:14:50.593Z,8.41
2022-11-02T21:17:16.983Z,7.99
2022-11-02T21:19:43.245Z,8.14
2022-11-02T21:22:09.497Z,7.94
2022-11-02T21:24:35.749Z,7.49
2022-11-02T21:27:02.009Z,7.16
2022-11-02T21:29:28.303Z,7.81
2022-11-02T21:31:54.608Z,7.91
2022-11-02T21:34:20.879Z,8.05
2022-11-02T21:36:47.206Z,7.81
2022-11-02T21:39:13.398Z,8.16
2022-11-02T21:41:39.963Z,7.57
2022-11-02T21:44:06.699Z,7.87
2022-11-02T21:46:32.966Z,7.92
2022-11-02T21:48:59.217Z,8.08
2022-11-02T21:51:25.586Z,8.01
2022-11-02T21:53:51.862Z,7.89
2022-11-02T21:56:18.129Z,8.00
2022-11-02T21:58:46.087Z,8.12
2022-11-02T22:01:31.646Z,7.92
2022-11-02T22:03:57.964Z,7.90
2022-11-02T22:06:29.899Z,7.90
2022-11-02T22:08:57.434Z,8.02
2022-11-02T22:11:24.479Z,7.71
2022-11-02T22:13:50.748Z,7.75
2022-11-02T22:16:17.971Z,7.75
2022-11-02T22:18:44.261Z,7.89
2022-11-02T22:21:10.517Z,7.81
2022-11-02T22:23:36.812Z,7.70
2022-11-02T22:26:03.069Z,7.66
2022-11-02T22:28:29.558Z,7.71
2022-11-02T22:30:55.756Z,7.73
2022-11-02T22:33:21.936Z,7.47
2022-11-02T22:35:48.137Z,7.49
2022-11-02T22:38:32.902Z,6.97
2022-11-02T22:40:59.735Z,7.30
2022-11-02T22:43:25.958Z,7.41
2022-11-02T22:45:52.150Z,7.51
2022-11-02T22:50:49.438Z,7.37
2022-11-02T22:53:15.615Z,6.90
2022-11-02T22:55:41.802Z,7.09
2022-11-02T22:58:07.988Z,6.76
2022-11-02T23:00:34.168Z,7.01
2022-11-02T23:03:00.371Z,6.88
2022-11-02T23:05:26.578Z,7.20
2022-11-02T23:07:52.770Z,7.16
2022-11-02T23:10:37.861Z,7.19
2022-11-02T23:13:04.538Z,6.79
2022-11-02T23:15:31.353Z,6.86
2022-11-02T23:17:57.540Z,7.19
2022-11-02T23:20:23.721Z,6.97
2022-11-02T23:22:52.954Z,7.02
2022-11-02T23:25:19.245Z,7.16
2022-11-02T23:28:03.996Z,7.05
2022-11-02T23:30:48.807Z,7.11
2022-11-02T23:33:14.996Z,6.66
2022-11-02T23:35:59.911Z,6.79
2022-11-02T23:38:46.050Z,6.91
2022-11-02T23:41:12.404Z,6.84
2022-11-02T23:43:38.590Z,6.54
2022-11-02T23:46:04.916Z,6.87
2022-11-02T23:48:31.109Z,6.82
2022-11-02T23:54:24.946Z,6.70
2022-11-02T23:56:51.158Z,6.74
2022-11-02T23:59:19.324Z,6.67
